Historique des mesures à Cassis (13260), France
Quotidien Résumé Janvier 3, 2017 Unités:  Métrique    US   Métrique/US
« Précédent (Jour)
Suivant (Jour) »
Quotidien Hebdomadaire Mensuel Annuel Période au choix
  Maximum: Minimum: Moyenne:
Température: TemperatureC °C 4.4 °C 7.9 °C
Point de rosée: DewpointC °C -0.9 °C 1.5 °C
Humidité: Humidity % 56 % 61 %
Vitesse du vent: 0 km/h 0 km/h 7.2 km/h
Rafales: 0 km/h - -
Vent:- - East
Pression: PressurehPa hPa 1012.8 hPa -
Précipitations: 0.0 mm    
Historical Graphs
 
 
Mesures pour : Janvier 3, 2017
Heure Temperature Point de rosée Pression Vent Vitesse du vent Rafales Humidité Pluie (par heure) Conditions
TemperatureC °C DewpointC °C PressurehPa hPa Calm     Humidity % HourlyPrecipMM mm SoftwareType W/m2
00:11 9.2 °C 4.6 °C 1014.4 hPa Calm     73 % 0.0 mm open2300-1.11 W/m2
01:10 9.3 °C 4.7 °C 1014.1 hPa Calm     73 % 0.0 mm open2300-1.11 W/m2
02:11 7.5 °C 1.9 °C 1013.8 hPa Calm     68 % 0.0 mm open2300-1.11 W/m2
03:10 7.2 °C 1.2 °C 1013.4 hPa South 3.4 km/h 3.4 km/h 66 % 0.0 mm open2300-1.11 W/m2
04:11 6.5 °C 0.6 °C 1013.4 hPa SSE 6.4 km/h 8 km/h 66 % 0.0 mm open2300-1.11 W/m2
05:10 6.5 °C 0.2 °C 1013.4 hPa Calm   2.3 km/h 64 % 0.0 mm open2300-1.11 W/m2
06:11 6.2 °C 0.1 °C 1012.8 hPa East 5.1 km/h 5.1 km/h 65 % 0.0 mm open2300-1.11 W/m2
07:10 4.9 °C -0.9 °C 1012.8 hPa NNE 19.2 km/h 19.2 km/h 66 % 0.0 mm open2300-1.11 W/m2
08:11 5.4 °C -0.4 °C 1014.8 hPa ESE 4.2 km/h 9.3 km/h 66 % 0.0 mm open2300-1.11 W/m2
09:10 4.4 °C -0.8 °C 1014.4 hPa North 19.2 km/h 34.8 km/h 69 % 0.0 mm open2300-1.11 W/m2
10:11 6.3 °C -0.1 °C 1015.5 hPa WNW 9.8 km/h 9.8 km/h 64 % 0.0 mm open2300-1.11 W/m2
11:10 7.2 °C 0.4 °C 1016.1 hPa WNW 27.2 km/h 27.2 km/h 62 % 0.0 mm open2300-1.11 W/m2
12:11 8.4 °C 1.1 °C 1016.1 hPa North 6.9 km/h 9.8 km/h 60 % 0.0 mm open2300-1.11 W/m2
13:10 9.9 °C 2.0 °C 1016.1 hPa NW 4.2 km/h 11.6 km/h 58 % 0.0 mm open2300-1.11 W/m2
14:11 10.8 °C 2.6 °C 1016.1 hPa North 5.1 km/h 9.8 km/h 57 % 0.0 mm open2300-1.11 W/m2
15:10 11.3 °C 2.8 °C 1016.5 hPa North 5.6 km/h 9.3 km/h 56 % 0.0 mm open2300-1.11 W/m2
16:11 10.9 °C 2.9 °C 1016.8 hPa NW 33.2 km/h 33.2 km/h 58 % 0.0 mm open2300-1.11 W/m2
17:10 10.1 °C 2.9 °C 1017.2 hPa North 2.9 km/h 3.4 km/h 61 % 0.0 mm open2300-1.11 W/m2
18:11 9.3 °C 2.4 °C 1017.5 hPa North 4.7 km/h 6.4 km/h 62 % 0.0 mm open2300-1.11 W/m2
19:10 9.0 °C 2.1 °C 1017.8 hPa NNE 2.9 km/h 7.6 km/h 62 % 0.0 mm open2300-1.11 W/m2
20:11 8.8 °C 1.9 °C 1018.5 hPa NNE 6.4 km/h 9.3 km/h 62 % 0.0 mm open2300-1.11 W/m2
21:10 9.0 °C 1.9 °C 1018.5 hPa NNE 4.2 km/h 5.6 km/h 61 % 0.0 mm open2300-1.11 W/m2
22:11 9.1 °C 2.0 °C 1018.5 hPa North 5.6 km/h 7.6 km/h 61 % 0.0 mm open2300-1.11 W/m2
23:10 9.3 °C 1.9 °C 1018.5 hPa North 5.1 km/h 5.6 km/h 60 % 0.0 mm open2300-1.11 W/m2
Observations météo à CASSIS
WU-History script by Weather Underground - 1 mb